sensor_id;sensor_type;location;lat;lon;timestamp;P1;durP1;ratioP1;P2;durP2;ratioP2
9420;SDS011;4749;51.398;5.466;2024-03-23T00:54:58;12.00;;;4.30;;
9420;SDS011;4749;51.398;5.466;2024-03-23T00:57:24;14.10;;;4.30;;
9420;SDS011;4749;51.398;5.466;2024-03-23T00:59:50;13.50;;;4.60;;
9420;SDS011;4749;51.398;5.466;2024-03-23T01:02:16;21.13;;;4.90;;
9420;SDS011;4749;51.398;5.466;2024-03-23T01:04:42;13.60;;;4.60;;
9420;SDS011;4749;51.398;5.466;2024-03-23T01:07:08;14.27;;;4.33;;
9420;SDS011;4749;51.398;5.466;2024-03-23T01:09:34;16.53;;;5.00;;
9420;SDS011;4749;51.398;5.466;2024-03-23T01:12:00;11.07;;;4.50;;
9420;SDS011;4749;51.398;5.466;2024-03-23T01:14:27;19.53;;;5.20;;
9420;SDS011;4749;51.398;5.466;2024-03-23T01:16:53;13.37;;;3.90;;
9420;SDS011;4749;51.398;5.466;2024-03-23T01:19:19;9.53;;;4.00;;
9420;SDS011;4749;51.398;5.466;2024-03-23T01:21:45;16.00;;;4.83;;
9420;SDS011;4749;51.398;5.466;2024-03-23T01:24:11;14.53;;;4.63;;
9420;SDS011;4749;51.398;5.466;2024-03-23T01:26:37;13.33;;;4.60;;
9420;SDS011;4749;51.398;5.466;2024-03-23T01:29:03;19.37;;;4.70;;
9420;SDS011;4749;51.398;5.466;2024-03-23T01:31:29;11.37;;;4.63;;
9420;SDS011;4749;51.398;5.466;2024-03-23T01:33:55;14.00;;;4.70;;
9420;SDS011;4749;51.398;5.466;2024-03-23T01:36:21;11.20;;;4.63;;
9420;SDS011;4749;51.398;5.466;2024-03-23T01:38:47;12.10;;;4.30;;
9420;SDS011;4749;51.398;5.466;2024-03-23T01:41:13;12.97;;;4.30;;
9420;SDS011;4749;51.398;5.466;2024-03-23T01:43:39;13.90;;;4.93;;
9420;SDS011;4749;51.398;5.466;2024-03-23T01:46:06;13.17;;;4.17;;
9420;SDS011;4749;51.398;5.466;2024-03-23T01:48:32;12.83;;;4.33;;
9420;SDS011;4749;51.398;5.466;2024-03-23T01:50:58;17.17;;;5.40;;
9420;SDS011;4749;51.398;5.466;2024-03-23T01:53:25;11.57;;;4.30;;
9420;SDS011;4749;51.398;5.466;2024-03-23T01:55:51;16.57;;;4.93;;
9420;SDS011;4749;51.398;5.466;2024-03-23T01:58:17;17.27;;;4.47;;
9420;SDS011;4749;51.398;5.466;2024-03-23T02:00:43;13.33;;;4.30;;
9420;SDS011;4749;51.398;5.466;2024-03-23T02:03:25;12.27;;;4.00;;
9420;SDS011;4749;51.398;5.466;2024-03-23T02:05:53;13.53;;;4.23;;
9420;SDS011;4749;51.398;5.466;2024-03-23T02:08:21;15.93;;;4.63;;
9420;SDS011;4749;51.398;5.466;2024-03-23T02:10:49;17.70;;;5.03;;
9420;SDS011;4749;51.398;5.466;2024-03-23T02:13:17;14.73;;;4.20;;
9420;SDS011;4749;51.398;5.466;2024-03-23T02:15:44;12.70;;;4.00;;
9420;SDS011;4749;51.398;5.466;2024-03-23T02:18:10;16.20;;;5.13;;
9420;SDS011;4749;51.398;5.466;2024-03-23T02:20:37;12.00;;;4.60;;
9420;SDS011;4749;51.398;5.466;2024-03-23T02:23:04;11.30;;;4.53;;
9420;SDS011;4749;51.398;5.466;2024-03-23T02:25:33;14.93;;;4.73;;
9420;SDS011;4749;51.398;5.466;2024-03-23T02:27:59;15.07;;;4.50;;
9420;SDS011;4749;51.398;5.466;2024-03-23T02:30:26;13.30;;;5.13;;
9420;SDS011;4749;51.398;5.466;2024-03-23T02:32:52;14.27;;;5.43;;
9420;SDS011;4749;51.398;5.466;2024-03-23T02:35:18;16.83;;;4.60;;
9420;SDS011;4749;51.398;5.466;2024-03-23T02:37:45;17.97;;;5.50;;
9420;SDS011;4749;51.398;5.466;2024-03-23T02:40:14;14.20;;;4.93;;
9420;SDS011;4749;51.398;5.466;2024-03-23T02:42:41;9.90;;;4.20;;
9420;SDS011;4749;51.398;5.466;2024-03-23T02:45:07;14.70;;;5.23;;
9420;SDS011;4749;51.398;5.466;2024-03-23T02:47:34;13.67;;;4.97;;
9420;SDS011;4749;51.398;5.466;2024-03-23T02:50:00;14.60;;;4.77;;
9420;SDS011;4749;51.398;5.466;2024-03-23T02:52:26;15.27;;;4.87;;
9420;SDS011;4749;51.398;5.466;2024-03-23T02:54:52;14.03;;;5.20;;
9420;SDS011;4749;51.398;5.466;2024-03-23T02:57:18;13.43;;;5.03;;
9420;SDS011;4749;51.398;5.466;2024-03-23T02:59:44;13.80;;;4.53;;
9420;SDS011;4749;51.398;5.466;2024-03-23T03:02:11;15.00;;;4.40;;
9420;SDS011;4749;51.398;5.466;2024-03-23T03:04:39;14.07;;;4.20;;
9420;SDS011;4749;51.398;5.466;2024-03-23T03:07:05;12.20;;;4.40;;
9420;SDS011;4749;51.398;5.466;2024-03-23T03:09:31;16.83;;;4.63;;
9420;SDS011;4749;51.398;5.466;2024-03-23T03:11:58;11.30;;;4.40;;
9420;SDS011;4749;51.398;5.466;2024-03-23T03:14:24;12.83;;;4.20;;
9420;SDS011;4749;51.398;5.466;2024-03-23T03:16:50;13.00;;;4.90;;
9420;SDS011;4749;51.398;5.466;2024-03-23T03:19:16;13.40;;;4.47;;
9420;SDS011;4749;51.398;5.466;2024-03-23T03:21:42;12.03;;;3.63;;
9420;SDS011;4749;51.398;5.466;2024-03-23T03:24:08;15.13;;;4.03;;
9420;SDS011;4749;51.398;5.466;2024-03-23T03:26:35;15.90;;;4.37;;
9420;SDS011;4749;51.398;5.466;2024-03-23T03:29:01;15.97;;;4.70;;
9420;SDS011;4749;51.398;5.466;2024-03-23T03:31:28;10.93;;;4.50;;
9420;SDS011;4749;51.398;5.466;2024-03-23T03:33:54;15.83;;;4.17;;
9420;SDS011;4749;51.398;5.466;2024-03-23T03:36:20;12.27;;;4.10;;
9420;SDS011;4749;51.398;5.466;2024-03-23T03:38:46;12.30;;;4.53;;
9420;SDS011;4749;51.398;5.466;2024-03-23T03:41:12;16.80;;;4.47;;
9420;SDS011;4749;51.398;5.466;2024-03-23T03:43:38;14.93;;;4.37;;
9420;SDS011;4749;51.398;5.466;2024-03-23T03:46:05;7.87;;;4.03;;
9420;SDS011;4749;51.398;5.466;2024-03-23T03:48:33;11.07;;;4.33;;
9420;SDS011;4749;51.398;5.466;2024-03-23T03:51:00;13.03;;;4.13;;
9420;SDS011;4749;51.398;5.466;2024-03-23T03:53:26;11.40;;;4.17;;
9420;SDS011;4749;51.398;5.466;2024-03-23T03:55:52;14.40;;;4.57;;
9420;SDS011;4749;51.398;5.466;2024-03-23T03:58:18;10.43;;;4.20;;
9420;SDS011;4749;51.398;5.466;2024-03-23T04:00:44;13.27;;;4.50;;
9420;SDS011;4749;51.398;5.466;2024-03-23T04:03:10;11.63;;;4.37;;
9420;SDS011;4749;51.398;5.466;2024-03-23T04:05:36;15.77;;;4.33;;
9420;SDS011;4749;51.398;5.466;2024-03-23T04:08:03;13.60;;;4.40;;
9420;SDS011;4749;51.398;5.466;2024-03-23T04:10:31;16.30;;;4.70;;
9420;SDS011;4749;51.398;5.466;2024-03-23T04:12:57;18.13;;;4.63;;
9420;SDS011;4749;51.398;5.466;2024-03-23T04:15:23;11.17;;;4.73;;
9420;SDS011;4749;51.398;5.466;2024-03-23T04:17:49;13.50;;;4.87;;
9420;SDS011;4749;51.398;5.466;2024-03-23T04:20:16;16.43;;;5.20;;
9420;SDS011;4749;51.398;5.466;2024-03-23T04:22:42;11.87;;;5.13;;
9420;SDS011;4749;51.398;5.466;2024-03-23T04:25:09;14.53;;;5.13;;
9420;SDS011;4749;51.398;5.466;2024-03-23T04:27:36;18.13;;;5.93;;
9420;SDS011;4749;51.398;5.466;2024-03-23T04:30:03;17.13;;;6.10;;
9420;SDS011;4749;51.398;5.466;2024-03-23T04:32:35;18.90;;;6.63;;
9420;SDS011;4749;51.398;5.466;2024-03-23T04:35:05;18.37;;;7.30;;
9420;SDS011;4749;51.398;5.466;2024-03-23T04:37:34;18.33;;;7.17;;
9420;SDS011;4749;51.398;5.466;2024-03-23T04:40:00;18.80;;;8.67;;
9420;SDS011;4749;51.398;5.466;2024-03-23T04:42:28;19.83;;;8.00;;
9420;SDS011;4749;51.398;5.466;2024-03-23T04:44:55;20.47;;;7.57;;
9420;SDS011;4749;51.398;5.466;2024-03-23T04:47:21;25.00;;;9.13;;
9420;SDS011;4749;51.398;5.466;2024-03-23T04:49:48;15.10;;;8.57;;
9420;SDS011;4749;51.398;5.466;2024-03-23T04:52:14;22.43;;;9.03;;
9420;SDS011;4749;51.398;5.466;2024-03-23T04:54:41;20.43;;;8.77;;
9420;SDS011;4749;51.398;5.466;2024-03-23T04:57:07;23.57;;;9.73;;
9420;SDS011;4749;51.398;5.466;2024-03-23T04:59:33;20.00;;;9.70;;
9420;SDS011;4749;51.398;5.466;2024-03-23T05:02:00;20.80;;;10.07;;
9420;SDS011;4749;51.398;5.466;2024-03-23T05:04:26;24.83;;;10.00;;
9420;SDS011;4749;51.398;5.466;2024-03-23T05:06:53;21.17;;;10.00;;
9420;SDS011;4749;51.398;5.466;2024-03-23T05:09:19;25.20;;;9.80;;
9420;SDS011;4749;51.398;5.466;2024-03-23T05:11:45;26.30;;;10.97;;
9420;SDS011;4749;51.398;5.466;2024-03-23T05:14:12;25.90;;;10.70;;
9420;SDS011;4749;51.398;5.466;2024-03-23T05:16:39;28.30;;;10.63;;
9420;SDS011;4749;51.398;5.466;2024-03-23T05:19:05;35.90;;;11.70;;
9420;SDS011;4749;51.398;5.466;2024-03-23T05:21:32;26.43;;;10.43;;
9420;SDS011;4749;51.398;5.466;2024-03-23T05:23:58;29.30;;;10.40;;
9420;SDS011;4749;51.398;5.466;2024-03-23T05:26:24;28.67;;;10.63;;
9420;SDS011;4749;51.398;5.466;2024-03-23T05:28:50;30.03;;;10.10;;
9420;SDS011;4749;51.398;5.466;2024-03-23T05:31:26;30.03;;;9.53;;
9420;SDS011;4749;51.398;5.466;2024-03-23T05:33:54;30.83;;;9.97;;
9420;SDS011;4749;51.398;5.466;2024-03-23T05:36:21;30.83;;;10.10;;
9420;SDS011;4749;51.398;5.466;2024-03-23T05:38:47;27.97;;;10.87;;
9420;SDS011;4749;51.398;5.466;2024-03-23T05:41:14;25.37;;;9.93;;
9420;SDS011;4749;51.398;5.466;2024-03-23T05:43:40;30.33;;;10.20;;
9420;SDS011;4749;51.398;5.466;2024-03-23T05:46:06;24.97;;;9.53;;
9420;SDS011;4749;51.398;5.466;2024-03-23T05:48:33;28.10;;;11.67;;
9420;SDS011;4749;51.398;5.466;2024-03-23T05:50:59;30.03;;;10.50;;
9420;SDS011;4749;51.398;5.466;2024-03-23T05:53:25;23.40;;;9.27;;
9420;SDS011;4749;51.398;5.466;2024-03-23T05:55:51;30.03;;;9.77;;
9420;SDS011;4749;51.398;5.466;2024-03-23T05:58:29;24.73;;;9.50;;
9420;SDS011;4749;51.398;5.466;2024-03-23T06:00:58;27.93;;;10.07;;
9420;SDS011;4749;51.398;5.466;2024-03-23T06:03:28;25.67;;;10.97;;
9420;SDS011;4749;51.398;5.466;2024-03-23T06:05:55;23.40;;;9.80;;
9420;SDS011;4749;51.398;5.466;2024-03-23T06:08:22;23.60;;;8.90;;
9420;SDS011;4749;51.398;5.466;2024-03-23T06:10:49;25.20;;;9.03;;
9420;SDS011;4749;51.398;5.466;2024-03-23T06:13:15;25.07;;;9.17;;
9420;SDS011;4749;51.398;5.466;2024-03-23T06:15:43;25.53;;;9.43;;
9420;SDS011;4749;51.398;5.466;2024-03-23T06:18:10;21.83;;;9.23;;
9420;SDS011;4749;51.398;5.466;2024-03-23T06:20:37;26.33;;;8.93;;
9420;SDS011;4749;51.398;5.466;2024-03-23T06:23:03;24.47;;;9.77;;
9420;SDS011;4749;51.398;5.466;2024-03-23T06:25:29;28.70;;;9.17;;
9420;SDS011;4749;51.398;5.466;2024-03-23T06:27:55;18.67;;;8.47;;
9420;SDS011;4749;51.398;5.466;2024-03-23T06:30:23;24.07;;;9.40;;
9420;SDS011;4749;51.398;5.466;2024-03-23T06:32:52;19.77;;;8.60;;
9420;SDS011;4749;51.398;5.466;2024-03-23T06:35:18;28.73;;;9.27;;
9420;SDS011;4749;51.398;5.466;2024-03-23T06:37:45;22.43;;;8.37;;
9420;SDS011;4749;51.398;5.466;2024-03-23T06:40:11;21.73;;;8.27;;
9420;SDS011;4749;51.398;5.466;2024-03-23T06:42:37;20.23;;;8.00;;
9420;SDS011;4749;51.398;5.466;2024-03-23T06:45:03;21.70;;;8.50;;
9420;SDS011;4749;51.398;5.466;2024-03-23T06:47:31;17.07;;;7.53;;
9420;SDS011;4749;51.398;5.466;2024-03-23T06:49:59;23.33;;;8.57;;
9420;SDS011;4749;51.398;5.466;2024-03-23T06:52:29;17.77;;;7.17;;
9420;SDS011;4749;51.398;5.466;2024-03-23T06:54:55;15.83;;;6.97;;
9420;SDS011;4749;51.398;5.466;2024-03-23T06:57:23;20.47;;;7.97;;
9420;SDS011;4749;51.398;5.466;2024-03-23T06:59:49;20.00;;;7.43;;
9420;SDS011;4749;51.398;5.466;2024-03-23T07:02:15;15.90;;;6.57;;
9420;SDS011;4749;51.398;5.466;2024-03-23T07:04:41;17.27;;;7.00;;
9420;SDS011;4749;51.398;5.466;2024-03-23T07:07:08;16.80;;;6.43;;
9420;SDS011;4749;51.398;5.466;2024-03-23T07:09:34;13.30;;;5.87;;
9420;SDS011;4749;51.398;5.466;2024-03-23T07:12:00;16.77;;;6.07;;
9420;SDS011;4749;51.398;5.466;2024-03-23T07:14:26;17.80;;;6.00;;
9420;SDS011;4749;51.398;5.466;2024-03-23T07:16:53;16.30;;;5.73;;
9420;SDS011;4749;51.398;5.466;2024-03-23T07:19:19;16.33;;;5.80;;
9420;SDS011;4749;51.398;5.466;2024-03-23T07:21:45;12.93;;;5.00;;
9420;SDS011;4749;51.398;5.466;2024-03-23T07:24:11;12.70;;;4.40;;
9420;SDS011;4749;51.398;5.466;2024-03-23T07:26:37;16.00;;;4.80;;
9420;SDS011;4749;51.398;5.466;2024-03-23T07:29:04;15.67;;;4.57;;
9420;SDS011;4749;51.398;5.466;2024-03-23T07:31:31;12.73;;;4.70;;
9420;SDS011;4749;51.398;5.466;2024-03-23T07:33:57;18.73;;;4.90;;
9420;SDS011;4749;51.398;5.466;2024-03-23T07:36:23;20.20;;;4.90;;
9420;SDS011;4749;51.398;5.466;2024-03-23T07:38:50;14.13;;;4.40;;
9420;SDS011;4749;51.398;5.466;2024-03-23T07:41:20;16.60;;;4.33;;
9420;SDS011;4749;51.398;5.466;2024-03-23T07:43:47;14.27;;;4.00;;
9420;SDS011;4749;51.398;5.466;2024-03-23T07:46:14;11.10;;;4.50;;
9420;SDS011;4749;51.398;5.466;2024-03-23T07:48:42;11.03;;;3.70;;
9420;SDS011;4749;51.398;5.466;2024-03-23T07:51:09;14.20;;;3.47;;
9420;SDS011;4749;51.398;5.466;2024-03-23T07:53:44;14.07;;;3.70;;
9420;SDS011;4749;51.398;5.466;2024-03-23T07:56:11;11.67;;;3.80;;
9420;SDS011;4749;51.398;5.466;2024-03-23T07:58:38;11.20;;;2.90;;
9420;SDS011;4749;51.398;5.466;2024-03-23T08:01:08;14.27;;;3.57;;
9420;SDS011;4749;51.398;5.466;2024-03-23T08:03:43;15.67;;;3.43;;
9420;SDS011;4749;51.398;5.466;2024-03-23T08:06:11;10.37;;;2.80;;
9420;SDS011;4749;51.398;5.466;2024-03-23T08:08:40;15.77;;;3.63;;
9420;SDS011;4749;51.398;5.466;2024-03-23T08:11:07;13.73;;;3.20;;
9420;SDS011;4749;51.398;5.466;2024-03-23T08:13:34;12.77;;;3.07;;
9420;SDS011;4749;51.398;5.466;2024-03-23T08:16:01;11.70;;;2.63;;
9420;SDS011;4749;51.398;5.466;2024-03-23T08:18:29;11.27;;;3.13;;
9420;SDS011;4749;51.398;5.466;2024-03-23T08:20:58;14.63;;;3.20;;
9420;SDS011;4749;51.398;5.466;2024-03-23T08:23:27;10.07;;;2.90;;
9420;SDS011;4749;51.398;5.466;2024-03-23T08:25:58;16.40;;;2.97;;
9420;SDS011;4749;51.398;5.466;2024-03-23T08:28:25;11.83;;;2.93;;
9420;SDS011;4749;51.398;5.466;2024-03-23T08:30:55;12.20;;;2.90;;
9420;SDS011;4749;51.398;5.466;2024-03-23T08:33:22;17.63;;;3.53;;
9420;SDS011;4749;51.398;5.466;2024-03-23T08:38:22;10.90;;;3.10;;
9420;SDS011;4749;51.398;5.466;2024-03-23T08:40:56;11.30;;;2.80;;
9420;SDS011;4749;51.398;5.466;2024-03-23T08:43:31;14.13;;;3.00;;
9420;SDS011;4749;51.398;5.466;2024-03-23T08:46:06;9.88;;;2.40;;
9420;SDS011;4749;51.398;5.466;2024-03-23T08:48:34;12.00;;;2.47;;
9420;SDS011;4749;51.398;5.466;2024-03-23T08:51:09;8.23;;;2.05;;
9420;SDS011;4749;51.398;5.466;2024-03-23T08:53:37;11.10;;;2.03;;
9420;SDS011;4749;51.398;5.466;2024-03-23T08:56:04;10.25;;;2.40;;
9420;SDS011;4749;51.398;5.466;2024-03-23T08:58:32;10.38;;;2.10;;
9420;SDS011;4749;51.398;5.466;2024-03-23T09:01:03;13.00;;;2.30;;
9420;SDS011;4749;51.398;5.466;2024-03-23T09:03:32;8.32;;;2.08;;
9420;SDS011;4749;51.398;5.466;2024-03-23T09:05:59;8.13;;;2.65;;
9420;SDS011;4749;51.398;5.466;2024-03-23T09:08:25;13.07;;;2.75;;
9420;SDS011;4749;51.398;5.466;2024-03-23T09:10:51;14.52;;;2.90;;
9420;SDS011;4749;51.398;5.466;2024-03-23T09:13:18;12.23;;;2.55;;
9420;SDS011;4749;51.398;5.466;2024-03-23T09:15:51;13.57;;;2.55;;
9420;SDS011;4749;51.398;5.466;2024-03-23T09:18:22;3.92;;;1.13;;
9420;SDS011;4749;51.398;5.466;2024-03-23T09:20:48;6.32;;;1.48;;
9420;SDS011;4749;51.398;5.466;2024-03-23T09:23:14;6.85;;;1.30;;
9420;SDS011;4749;51.398;5.466;2024-03-23T09:25:40;5.45;;;0.90;;
9420;SDS011;4749;51.398;5.466;2024-03-23T09:28:06;8.27;;;1.63;;
9420;SDS011;4749;51.398;5.466;2024-03-23T09:30:36;6.00;;;1.05;;
9420;SDS011;4749;51.398;5.466;2024-03-23T09:33:08;5.15;;;1.08;;
9420;SDS011;4749;51.398;5.466;2024-03-23T09:35:38;7.60;;;1.33;;
9420;SDS011;4749;51.398;5.466;2024-03-23T09:38:05;6.50;;;1.08;;
9420;SDS011;4749;51.398;5.466;2024-03-23T09:40:43;7.63;;;1.30;;
9420;SDS011;4749;51.398;5.466;2024-03-23T09:43:10;7.13;;;1.50;;
9420;SDS011;4749;51.398;5.466;2024-03-23T09:45:39;7.88;;;1.83;;
9420;SDS011;4749;51.398;5.466;2024-03-23T09:48:12;10.40;;;2.33;;
9420;SDS011;4749;51.398;5.466;2024-03-23T09:50:40;10.35;;;2.78;;
9420;SDS011;4749;51.398;5.466;2024-03-23T09:53:09;10.05;;;2.70;;
9420;SDS011;4749;51.398;5.466;2024-03-23T09:55:40;7.72;;;2.30;;
9420;SDS011;4749;51.398;5.466;2024-03-23T09:58:08;5.90;;;1.80;;
9420;SDS011;4749;51.398;5.466;2024-03-23T10:00:37;9.93;;;2.78;;
9420;SDS011;4749;51.398;5.466;2024-03-23T10:03:04;6.43;;;1.92;;
9420;SDS011;4749;51.398;5.466;2024-03-23T10:05:31;9.85;;;2.22;;
9420;SDS011;4749;51.398;5.466;2024-03-23T10:08:22;7.57;;;2.13;;
9420;SDS011;4749;51.398;5.466;2024-03-23T10:10:47;11.30;;;2.40;;
9420;SDS011;4749;51.398;5.466;2024-03-23T10:13:23;7.13;;;1.77;;
9420;SDS011;4749;51.398;5.466;2024-03-23T10:15:58;6.72;;;1.55;;
9420;SDS011;4749;51.398;5.466;2024-03-23T10:18:25;6.63;;;1.48;;
9420;SDS011;4749;51.398;5.466;2024-03-23T10:21:07;4.82;;;1.33;;
9420;SDS011;4749;51.398;5.466;2024-03-23T10:23:38;6.13;;;1.13;;
9420;SDS011;4749;51.398;5.466;2024-03-23T10:26:13;5.85;;;1.40;;
9420;SDS011;4749;51.398;5.466;2024-03-23T10:31:42;5.95;;;1.25;;
9420;SDS011;4749;51.398;5.466;2024-03-23T10:34:08;5.80;;;1.20;;
9420;SDS011;4749;51.398;5.466;2024-03-23T10:36:38;7.43;;;1.52;;
9420;SDS011;4749;51.398;5.466;2024-03-23T10:39:06;6.60;;;1.23;;
9420;SDS011;4749;51.398;5.466;2024-03-23T10:41:33;10.77;;;1.95;;
9420;SDS011;4749;51.398;5.466;2024-03-23T10:44:00;6.47;;;1.42;;
9420;SDS011;4749;51.398;5.466;2024-03-23T10:46:27;7.03;;;1.58;;
9420;SDS011;4749;51.398;5.466;2024-03-23T10:48:53;7.63;;;1.63;;
9420;SDS011;4749;51.398;5.466;2024-03-23T10:51:20;8.80;;;2.00;;
9420;SDS011;4749;51.398;5.466;2024-03-23T10:53:46;6.75;;;1.83;;
9420;SDS011;4749;51.398;5.466;2024-03-23T10:56:13;5.35;;;1.52;;
9420;SDS011;4749;51.398;5.466;2024-03-23T10:58:46;5.47;;;1.40;;
9420;SDS011;4749;51.398;5.466;2024-03-23T11:01:14;7.10;;;1.95;;
9420;SDS011;4749;51.398;5.466;2024-03-23T11:03:45;6.75;;;1.58;;
9420;SDS011;4749;51.398;5.466;2024-03-23T11:06:33;6.60;;;1.60;;
9420;SDS011;4749;51.398;5.466;2024-03-23T11:09:04;8.88;;;1.73;;
9420;SDS011;4749;51.398;5.466;2024-03-23T11:11:52;9.03;;;2.07;;
9420;SDS011;4749;51.398;5.466;2024-03-23T11:14:22;8.70;;;1.97;;
9420;SDS011;4749;51.398;5.466;2024-03-23T11:17:08;6.30;;;1.53;;
9420;SDS011;4749;51.398;5.466;2024-03-23T11:19:36;6.87;;;1.20;;
9420;SDS011;4749;51.398;5.466;2024-03-23T11:22:03;4.23;;;1.20;;
9420;SDS011;4749;51.398;5.466;2024-03-23T11:24:30;3.80;;;1.03;;
9420;SDS011;4749;51.398;5.466;2024-03-23T11:26:57;7.70;;;1.23;;
9420;SDS011;4749;51.398;5.466;2024-03-23T11:29:29;2.47;;;1.10;;
9420;SDS011;4749;51.398;5.466;2024-03-23T11:31:55;3.97;;;0.97;;
9420;SDS011;4749;51.398;5.466;2024-03-23T11:34:22;4.37;;;1.10;;
9420;SDS011;4749;51.398;5.466;2024-03-23T11:36:48;5.53;;;1.43;;
9420;SDS011;4749;51.398;5.466;2024-03-23T11:39:16;5.07;;;1.20;;
9420;SDS011;4749;51.398;5.466;2024-03-23T11:41:46;9.30;;;1.90;;
9420;SDS011;4749;51.398;5.466;2024-03-23T11:44:21;8.10;;;1.33;;
9420;SDS011;4749;51.398;5.466;2024-03-23T11:46:49;6.03;;;1.40;;
9420;SDS011;4749;51.398;5.466;2024-03-23T11:49:22;8.37;;;1.50;;
9420;SDS011;4749;51.398;5.466;2024-03-23T11:51:53;4.77;;;1.30;;
9420;SDS011;4749;51.398;5.466;2024-03-23T11:54:21;3.83;;;1.07;;
9420;SDS011;4749;51.398;5.466;2024-03-23T11:59:37;5.50;;;1.00;;
9420;SDS011;4749;51.398;5.466;2024-03-23T12:02:10;3.73;;;0.87;;
9420;SDS011;4749;51.398;5.466;2024-03-23T12:04:40;5.60;;;1.10;;
9420;SDS011;4749;51.398;5.466;2024-03-23T12:07:14;4.47;;;0.90;;
9420;SDS011;4749;51.398;5.466;2024-03-23T12:09:46;4.17;;;0.70;;
9420;SDS011;4749;51.398;5.466;2024-03-23T12:12:27;6.03;;;1.17;;
9420;SDS011;4749;51.398;5.466;2024-03-23T12:17:34;3.63;;;0.70;;
9420;SDS011;4749;51.398;5.466;2024-03-23T12:20:00;2.70;;;0.77;;
9420;SDS011;4749;51.398;5.466;2024-03-23T12:22:27;5.67;;;1.00;;
9420;SDS011;4749;51.398;5.466;2024-03-23T12:24:55;4.88;;;0.98;;
9420;SDS011;4749;51.398;5.466;2024-03-23T12:27:21;7.88;;;1.50;;
9420;SDS011;4749;51.398;5.466;2024-03-23T12:29:48;4.93;;;1.27;;
9420;SDS011;4749;51.398;5.466;2024-03-23T12:32:14;5.85;;;1.10;;
9420;SDS011;4749;51.398;5.466;2024-03-23T12:34:41;8.23;;;1.10;;
9420;SDS011;4749;51.398;5.466;2024-03-23T12:37:08;3.13;;;1.20;;
9420;SDS011;4749;51.398;5.466;2024-03-23T12:39:38;5.15;;;0.88;;
9420;SDS011;4749;51.398;5.466;2024-03-23T12:42:04;3.25;;;0.77;;
9420;SDS011;4749;51.398;5.466;2024-03-23T12:44:30;2.13;;;0.70;;
9420;SDS011;4749;51.398;5.466;2024-03-23T12:46:56;4.40;;;0.85;;
9420;SDS011;4749;51.398;5.466;2024-03-23T12:49:23;2.10;;;0.40;;
9420;SDS011;4749;51.398;5.466;2024-03-23T12:51:55;1.65;;;0.40;;
9420;SDS011;4749;51.398;5.466;2024-03-23T12:54:22;0.73;;;0.32;;
9420;SDS011;4749;51.398;5.466;2024-03-23T12:56:48;1.15;;;0.60;;
9420;SDS011;4749;51.398;5.466;2024-03-23T12:59:15;0.52;;;0.43;;
9420;SDS011;4749;51.398;5.466;2024-03-23T13:01:42;1.65;;;0.28;;
9420;SDS011;4749;51.398;5.466;2024-03-23T13:04:11;1.45;;;0.35;;
9420;SDS011;4749;51.398;5.466;2024-03-23T13:06:37;0.40;;;0.30;;
9420;SDS011;4749;51.398;5.466;2024-03-23T13:09:03;0.63;;;0.25;;
9420;SDS011;4749;51.398;5.466;2024-03-23T13:11:30;1.70;;;0.47;;
9420;SDS011;4749;51.398;5.466;2024-03-23T13:13:56;1.85;;;0.40;;
9420;SDS011;4749;51.398;5.466;2024-03-23T13:16:22;3.42;;;0.63;;
9420;SDS011;4749;51.398;5.466;2024-03-23T13:18:49;3.35;;;1.00;;
9420;SDS011;4749;51.398;5.466;2024-03-23T13:21:15;2.70;;;0.70;;
9420;SDS011;4749;51.398;5.466;2024-03-23T13:23:42;4.80;;;1.15;;
9420;SDS011;4749;51.398;5.466;2024-03-23T13:26:13;7.35;;;1.17;;
9420;SDS011;4749;51.398;5.466;2024-03-23T13:28:39;5.78;;;1.30;;
9420;SDS011;4749;51.398;5.466;2024-03-23T13:31:05;7.03;;;1.27;;
9420;SDS011;4749;51.398;5.466;2024-03-23T13:33:31;5.22;;;1.10;;
9420;SDS011;4749;51.398;5.466;2024-03-23T13:35:58;7.30;;;1.30;;
9420;SDS011;4749;51.398;5.466;2024-03-23T13:38:24;7.93;;;1.52;;
9420;SDS011;4749;51.398;5.466;2024-03-23T13:40:55;4.93;;;1.10;;
9420;SDS011;4749;51.398;5.466;2024-03-23T13:43:23;8.98;;;1.60;;
9420;SDS011;4749;51.398;5.466;2024-03-23T13:45:54;4.18;;;0.98;;
9420;SDS011;4749;51.398;5.466;2024-03-23T13:48:25;4.90;;;1.10;;
9420;SDS011;4749;51.398;5.466;2024-03-23T13:53:25;9.60;;;1.60;;
9420;SDS011;4749;51.398;5.466;2024-03-23T13:55:52;4.57;;;1.33;;
9420;SDS011;4749;51.398;5.466;2024-03-23T13:58:19;12.90;;;1.90;;
9420;SDS011;4749;51.398;5.466;2024-03-23T14:00:46;7.90;;;1.85;;
9420;SDS011;4749;51.398;5.466;2024-03-23T14:03:12;7.43;;;1.35;;
9420;SDS011;4749;51.398;5.466;2024-03-23T14:05:40;6.35;;;1.50;;
9420;SDS011;4749;51.398;5.466;2024-03-23T14:08:06;8.88;;;1.80;;
9420;SDS011;4749;51.398;5.466;2024-03-23T14:10:33;6.32;;;1.58;;
9420;SDS011;4749;51.398;5.466;2024-03-23T14:13:01;10.55;;;1.45;;
9420;SDS011;4749;51.398;5.466;2024-03-23T14:15:31;6.07;;;1.30;;
9420;SDS011;4749;51.398;5.466;2024-03-23T14:17:57;4.53;;;1.70;;
9420;SDS011;4749;51.398;5.466;2024-03-23T14:20:24;8.93;;;1.92;;
9420;SDS011;4749;51.398;5.466;2024-03-23T14:22:51;5.18;;;1.50;;
9420;SDS011;4749;51.398;5.466;2024-03-23T14:25:18;5.35;;;1.30;;
9420;SDS011;4749;51.398;5.466;2024-03-23T14:27:44;4.40;;;1.33;;
9420;SDS011;4749;51.398;5.466;2024-03-23T14:30:11;4.20;;;1.35;;
9420;SDS011;4749;51.398;5.466;2024-03-23T14:32:39;6.95;;;1.70;;
9420;SDS011;4749;51.398;5.466;2024-03-23T14:35:06;3.63;;;1.50;;
9420;SDS011;4749;51.398;5.466;2024-03-23T14:37:34;6.15;;;1.45;;
9420;SDS011;4749;51.398;5.466;2024-03-23T14:40:01;7.05;;;2.00;;
9420;SDS011;4749;51.398;5.466;2024-03-23T14:42:28;7.00;;;1.50;;
9420;SDS011;4749;51.398;5.466;2024-03-23T14:44:54;5.68;;;1.27;;
9420;SDS011;4749;51.398;5.466;2024-03-23T14:47:20;6.72;;;1.52;;
9420;SDS011;4749;51.398;5.466;2024-03-23T14:49:47;5.95;;;1.40;;
9420;SDS011;4749;51.398;5.466;2024-03-23T14:52:15;4.00;;;1.35;;
9420;SDS011;4749;51.398;5.466;2024-03-23T14:54:45;6.70;;;1.42;;
9420;SDS011;4749;51.398;5.466;2024-03-23T14:57:12;5.32;;;1.30;;
9420;SDS011;4749;51.398;5.466;2024-03-23T14:59:38;6.95;;;1.50;;
9420;SDS011;4749;51.398;5.466;2024-03-23T15:02:04;5.18;;;1.80;;
9420;SDS011;4749;51.398;5.466;2024-03-23T15:04:31;5.32;;;1.40;;
9420;SDS011;4749;51.398;5.466;2024-03-23T15:06:57;6.10;;;1.33;;
9420;SDS011;4749;51.398;5.466;2024-03-23T15:09:23;6.13;;;1.60;;
9420;SDS011;4749;51.398;5.466;2024-03-23T15:11:49;4.15;;;1.33;;
9420;SDS011;4749;51.398;5.466;2024-03-23T15:14:15;3.30;;;0.98;;
9420;SDS011;4749;51.398;5.466;2024-03-23T15:16:42;3.80;;;1.50;;
9420;SDS011;4749;51.398;5.466;2024-03-23T15:19:08;5.63;;;1.33;;
9420;SDS011;4749;51.398;5.466;2024-03-23T15:21:34;5.07;;;1.35;;
9420;SDS011;4749;51.398;5.466;2024-03-23T15:24:00;4.78;;;1.10;;
9420;SDS011;4749;51.398;5.466;2024-03-23T15:26:27;3.75;;;1.20;;
9420;SDS011;4749;51.398;5.466;2024-03-23T15:28:53;6.93;;;1.50;;
9420;SDS011;4749;51.398;5.466;2024-03-23T15:31:21;5.78;;;1.40;;
9420;SDS011;4749;51.398;5.466;2024-03-23T15:33:48;4.43;;;1.25;;
9420;SDS011;4749;51.398;5.466;2024-03-23T15:36:14;4.80;;;1.00;;
9420;SDS011;4749;51.398;5.466;2024-03-23T15:38:40;6.95;;;1.05;;
9420;SDS011;4749;51.398;5.466;2024-03-23T15:41:08;1.42;;;0.65;;
9420;SDS011;4749;51.398;5.466;2024-03-23T15:43:35;2.63;;;0.77;;
9420;SDS011;4749;51.398;5.466;2024-03-23T15:46:02;4.37;;;0.90;;
9420;SDS011;4749;51.398;5.466;2024-03-23T15:48:30;2.60;;;0.70;;
9420;SDS011;4749;51.398;5.466;2024-03-23T15:50:58;2.73;;;0.60;;
9420;SDS011;4749;51.398;5.466;2024-03-23T15:53:26;2.23;;;0.70;;
9420;SDS011;4749;51.398;5.466;2024-03-23T15:55:54;1.77;;;0.50;;
9420;SDS011;4749;51.398;5.466;2024-03-23T15:58:20;3.20;;;0.50;;
9420;SDS011;4749;51.398;5.466;2024-03-23T16:01:03;3.73;;;0.60;;
9420;SDS011;4749;51.398;5.466;2024-03-23T16:03:32;0.87;;;0.60;;
9420;SDS011;4749;51.398;5.466;2024-03-23T16:06:02;1.87;;;0.50;;
9420;SDS011;4749;51.398;5.466;2024-03-23T16:08:30;1.47;;;0.47;;
9420;SDS011;4749;51.398;5.466;2024-03-23T16:11:00;0.60;;;0.43;;
9420;SDS011;4749;51.398;5.466;2024-03-23T16:13:31;2.20;;;0.60;;
9420;SDS011;4749;51.398;5.466;2024-03-23T16:15:59;2.43;;;0.87;;
9420;SDS011;4749;51.398;5.466;2024-03-23T16:18:31;2.97;;;1.00;;